Time;durP1;ratioP1;P1;durP2;ratioP2;P2;SDS_P1;SDS_P2;PMS_P1;PMS_P2;Temp;Humidity;BMP_temperature;BMP_pressure;BME280_temperature;BME280_humidity;BME280_pressure;Samples;Min_cycle;Max_cycle;Signal;HPM_P1;HPM_P2
2023/08/01 00:01:31;;;;;;;3.28;0.82;;;21.50;75.80;;;;;;5071228;28;20115;-62
2023/08/01 00:03:56;;;;;;;1.65;0.85;;;21.50;75.80;;;;;;5070471;28;20048;-62
2023/08/01 00:06:24;;;;;;;1.75;0.95;;;21.50;75.80;;;;;;5071426;28;20479;-62
2023/08/01 00:08:49;;;;;;;2.35;0.90;;;21.50;75.80;;;;;;5071992;28;20502;-62
2023/08/01 00:11:16;;;;;;;2.65;0.95;;;21.50;75.80;;;;;;5071286;28;20052;-62
2023/08/01 00:13:42;;;;;;;2.00;0.80;;;21.50;75.70;;;;;;5071621;28;20483;-62
2023/08/01 00:16:08;;;;;;;2.28;0.82;;;21.50;75.70;;;;;;5072137;28;20041;-63
2023/08/01 00:18:34;;;;;;;1.75;0.70;;;21.50;75.80;;;;;;5071059;28;20033;-63
2023/08/01 00:20:59;;;;;;;2.13;0.98;;;21.50;75.80;;;;;;5072051;28;20124;-62
2023/08/01 00:23:25;;;;;;;1.85;0.75;;;21.50;75.60;;;;;;5071555;28;20047;-63
2023/08/01 00:25:54;;;;;;;3.17;0.82;;;21.50;75.60;;;;;;5071206;28;20391;-62
2023/08/01 00:28:19;;;;;;;2.63;1.00;;;21.50;75.60;;;;;;5070988;28;20045;-62
2023/08/01 00:30:45;;;;;;;1.60;0.90;;;21.50;75.60;;;;;;5071940;28;20485;-62
2023/08/01 00:33:10;;;;;;;2.38;1.10;;;21.50;75.60;;;;;;5071132;28;20048;-62
2023/08/01 00:35:36;;;;;;;1.92;0.98;;;21.50;75.50;;;;;;5071471;28;20048;-62
2023/08/01 00:38:01;;;;;;;2.30;1.00;;;21.50;75.60;;;;;;5072106;28;20037;-62
2023/08/01 00:40:31;;;;;;;2.13;0.80;;;21.50;75.60;;;;;;5071057;28;20086;-62
2023/08/01 00:42:56;;;;;;;1.77;0.80;;;21.50;75.60;;;;;;5071936;28;20494;-62
2023/08/01 00:45:24;;;;;;;2.05;0.90;;;21.50;75.60;;;;;;5071422;28;20032;-62
2023/08/01 00:47:51;;;;;;;3.43;0.83;;;21.50;76.30;;;;;;5074052;28;20395;-62
2023/08/01 00:50:20;;;;;;;1.83;0.93;;;21.50;75.70;;;;;;5075648;28;20048;-63
2023/08/01 00:52:46;;;;;;;2.72;0.95;;;21.50;75.60;;;;;;5074111;28;20379;-62
2023/08/01 00:55:15;;;;;;;1.40;0.80;;;21.50;75.60;;;;;;5073331;28;20063;-62
2023/08/01 00:57:40;;;;;;;1.30;0.70;;;21.50;75.50;;;;;;5057305;28;20032;-62
2023/08/01 01:00:06;;;;;;;2.75;1.00;;;21.50;75.50;;;;;;5075247;28;20067;-62
2023/08/01 01:02:32;;;;;;;1.98;0.82;;;21.50;75.60;;;;;;5074230;28;20048;-63
2023/08/01 01:04:57;;;;;;;2.35;1.00;;;21.50;75.60;;;;;;5074911;28;20037;-62
2023/08/01 01:07:23;;;;;;;2.47;1.00;;;21.50;75.60;;;;;;5074749;28;20094;-62
2023/08/01 01:09:50;;;;;;;1.25;0.75;;;21.40;75.50;;;;;;5073747;28;20122;-62
2023/08/01 01:12:15;;;;;;;2.70;1.05;;;21.40;75.40;;;;;;5075426;28;20547;-62
2023/08/01 01:14:41;;;;;;;1.55;0.70;;;21.40;75.50;;;;;;5074034;28;20155;-62
2023/08/01 01:17:07;;;;;;;2.75;0.98;;;21.40;75.40;;;;;;5075108;28;20403;-62
2023/08/01 01:19:32;;;;;;;3.88;1.00;;;21.40;75.40;;;;;;5075000;28;20071;-62
2023/08/01 01:21:58;;;;;;;1.85;1.10;;;21.40;75.40;;;;;;5074151;28;20416;-62
2023/08/01 01:24:23;;;;;;;2.65;1.05;;;21.40;75.30;;;;;;5057149;28;20040;-63
2023/08/01 01:26:49;;;;;;;1.38;0.80;;;21.40;75.50;;;;;;5056196;28;20090;-62
2023/08/01 01:29:14;;;;;;;1.98;0.90;;;21.40;75.40;;;;;;5073163;28;20499;-62
2023/08/01 01:31:40;;;;;;;1.90;0.80;;;21.40;75.40;;;;;;5056217;28;20060;-62
2023/08/01 01:34:06;;;;;;;1.30;0.90;;;21.40;75.40;;;;;;5056595;28;20480;-62
2023/08/01 01:36:31;;;;;;;1.80;0.88;;;21.40;75.40;;;;;;5074088;28;20063;-62
2023/08/01 01:38:57;;;;;;;1.67;0.80;;;21.40;75.30;;;;;;5074501;28;20404;-62
2023/08/01 01:41:22;;;;;;;2.53;0.80;;;21.40;75.30;;;;;;5073604;28;20042;-63
2023/08/01 01:43:48;;;;;;;1.88;0.85;;;21.40;75.30;;;;;;5073456;28;20109;-63
2023/08/01 01:46:14;;;;;;;1.58;0.90;;;21.40;75.30;;;;;;5074134;28;20049;-63
2023/08/01 01:48:39;;;;;;;2.30;0.90;;;21.40;75.20;;;;;;5073644;28;20075;-63
2023/08/01 01:51:05;;;;;;;2.95;0.98;;;21.40;75.20;;;;;;5073657;28;20044;-63
2023/08/01 01:53:31;;;;;;;2.10;0.85;;;21.40;75.20;;;;;;5073870;28;20045;-63
2023/08/01 01:55:56;;;;;;;1.65;0.95;;;21.40;75.30;;;;;;5072497;28;20093;-63
2023/08/01 01:58:22;;;;;;;2.38;1.13;;;21.40;75.20;;;;;;5073185;28;20049;-63
2023/08/01 02:00:49;;;;;;;2.58;0.90;;;21.40;75.20;;;;;;5073765;28;20036;-63
2023/08/01 02:03:17;;;;;;;2.35;1.00;;;21.40;75.20;;;;;;5073853;28;20083;-62
2023/08/01 02:05:42;;;;;;;2.03;1.00;;;21.40;75.10;;;;;;5072885;28;20067;-62
2023/08/01 02:08:08;;;;;;;2.30;1.10;;;21.40;75.10;;;;;;5072962;28;20400;-62
2023/08/01 02:10:34;;;;;;;2.67;1.02;;;21.40;75.10;;;;;;5073443;28;20047;-62
2023/08/01 02:12:59;;;;;;;1.42;0.80;;;21.40;75.10;;;;;;5073551;28;20072;-62
2023/08/01 02:15:25;;;;;;;1.30;0.80;;;21.40;75.10;;;;;;5073521;28;20502;-62
2023/08/01 02:17:50;;;;;;;1.92;1.00;;;21.40;75.10;;;;;;5073181;28;20123;-62
2023/08/01 02:20:16;;;;;;;2.70;1.05;;;21.40;75.10;;;;;;5073909;28;20079;-63
2023/08/01 02:22:42;;;;;;;2.65;0.88;;;21.40;75.10;;;;;;5073493;28;20045;-62
2023/08/01 02:25:07;;;;;;;2.13;1.00;;;21.40;75.10;;;;;;5072312;28;20079;-62
2023/08/01 02:27:33;;;;;;;2.53;0.85;;;21.40;75.00;;;;;;5073879;28;20055;-62
2023/08/01 02:29:59;;;;;;;1.90;1.02;;;21.30;75.00;;;;;;5072026;28;20044;-62
2023/08/01 02:32:24;;;;;;;2.47;0.80;;;21.30;75.00;;;;;;5072962;28;20045;-62
2023/08/01 02:34:50;;;;;;;1.98;1.13;;;21.30;75.00;;;;;;5072592;28;20409;-62
2023/08/01 02:37:15;;;;;;;1.92;0.98;;;21.30;75.00;;;;;;5073778;28;20033;-62
2023/08/01 02:39:41;;;;;;;2.88;1.20;;;21.30;75.00;;;;;;5072539;28;20461;-63
2023/08/01 02:42:07;;;;;;;1.23;0.85;;;21.30;75.10;;;;;;5073645;28;20059;-62
2023/08/01 02:44:32;;;;;;;1.75;0.93;;;21.30;75.00;;;;;;5073173;28;20037;-62
2023/08/01 02:46:58;;;;;;;3.17;0.90;;;21.30;75.00;;;;;;5072486;28;20044;-62
2023/08/01 02:49:23;;;;;;;2.35;0.93;;;21.30;75.10;;;;;;5073628;28;20337;-62
2023/08/01 02:51:49;;;;;;;2.60;1.00;;;21.30;75.10;;;;;;5073432;28;20169;-62
2023/08/01 02:54:14;;;;;;;2.25;1.00;;;21.30;75.10;;;;;;5072454;28;20123;-62
2023/08/01 02:56:41;;;;;;;2.67;1.10;;;21.30;75.10;;;;;;5072131;28;20056;-62
2023/08/01 02:59:09;;;;;;;2.10;1.20;;;21.30;75.10;;;;;;5073247;28;20060;-62
2023/08/01 03:01:36;;;;;;;1.23;0.70;;;21.30;75.10;;;;;;5071754;28;20032;-62
2023/08/01 03:04:05;;;;;;;2.20;0.95;;;21.30;75.10;;;;;;5072528;28;20476;-61
2023/08/01 03:06:33;;;;;;;1.73;0.80;;;21.30;75.10;;;;;;5072915;28;20068;-62
2023/08/01 03:08:59;;;;;;;2.55;0.90;;;21.30;75.00;;;;;;5072141;28;20036;-61
2023/08/01 03:11:25;;;;;;;2.17;1.00;;;21.30;75.10;;;;;;5072266;28;20102;-62
2023/08/01 03:13:51;;;;;;;1.63;0.85;;;21.30;75.10;;;;;;5072607;28;20416;-62
2023/08/01 03:16:17;;;;;;;3.00;0.90;;;21.30;75.10;;;;;;5071548;28;20127;-62
2023/08/01 03:18:43;;;;;;;1.67;0.98;;;21.30;75.10;;;;;;5071373;28;20056;-62
2023/08/01 03:21:08;;;;;;;2.30;1.00;;;21.30;75.00;;;;;;5071950;28;20043;-62
2023/08/01 03:23:34;;;;;;;1.52;0.90;;;21.30;75.00;;;;;;5072717;28;20480;-62
2023/08/01 03:26:00;;;;;;;2.03;0.93;;;21.30;74.90;;;;;;5072457;28;20055;-61
2023/08/01 03:28:26;;;;;;;1.95;0.80;;;21.30;74.90;;;;;;5071772;28;20041;-62
2023/08/01 03:30:53;;;;;;;2.33;1.10;;;21.30;74.90;;;;;;5072093;28;20040;-62
2023/08/01 03:33:19;;;;;;;2.25;1.00;;;21.30;75.00;;;;;;5071269;28;20062;-62
2023/08/01 03:35:44;;;;;;;2.00;1.20;;;21.30;75.00;;;;;;5071664;28;20041;-62
2023/08/01 03:38:10;;;;;;;2.83;1.17;;;21.30;75.00;;;;;;5072902;28;20036;-62
2023/08/01 03:40:36;;;;;;;3.08;1.00;;;21.30;75.00;;;;;;5072220;28;20098;-62
2023/08/01 03:43:01;;;;;;;2.40;1.25;;;21.30;74.90;;;;;;5053561;28;20396;-62
2023/08/01 03:45:27;;;;;;;1.52;0.98;;;21.30;74.90;;;;;;5071161;28;20472;-62
2023/08/01 03:47:52;;;;;;;2.30;1.02;;;21.30;74.90;;;;;;5073636;28;20041;-62
2023/08/01 03:50:18;;;;;;;1.92;1.00;;;21.30;74.90;;;;;;5072118;28;20040;-61
2023/08/01 03:52:43;;;;;;;2.03;0.90;;;21.30;74.90;;;;;;5071935;28;20041;-61
2023/08/01 03:55:09;;;;;;;3.13;1.10;;;21.20;74.80;;;;;;5072216;28;20127;-62
2023/08/01 03:57:35;;;;;;;1.92;0.98;;;21.20;74.90;;;;;;5069942;28;20032;-62
2023/08/01 04:00:00;;;;;;;1.42;0.93;;;21.20;74.90;;;;;;5072168;28;20052;-62
2023/08/01 04:02:26;;;;;;;1.98;1.10;;;21.20;74.80;;;;;;5071984;28;20044;-61
2023/08/01 04:04:52;;;;;;;2.55;1.02;;;21.20;74.80;;;;;;5070308;28;20036;-62
2023/08/01 04:07:18;;;;;;;1.75;0.80;;;21.20;74.80;;;;;;5071690;28;20047;-62
2023/08/01 04:09:44;;;;;;;3.45;1.15;;;21.20;74.80;;;;;;5071917;28;20083;-61
2023/08/01 04:12:09;;;;;;;1.90;0.95;;;21.20;74.90;;;;;;5071462;28;20076;-62
2023/08/01 04:14:35;;;;;;;2.85;1.02;;;21.20;74.80;;;;;;5071801;28;20396;-62
2023/08/01 04:17:00;;;;;;;1.67;0.85;;;21.20;74.80;;;;;;5072426;28;20488;-61
2023/08/01 04:19:26;;;;;;;2.70;0.80;;;21.20;74.80;;;;;;5071197;28;20466;-61
2023/08/01 04:21:51;;;;;;;1.77;1.00;;;21.20;74.80;;;;;;5074093;28;20037;-62
2023/08/01 04:24:17;;;;;;;2.35;0.80;;;21.20;74.80;;;;;;5075620;28;20048;-62
2023/08/01 04:26:43;;;;;;;2.80;1.00;;;21.20;74.80;;;;;;5074135;28;20044;-62
2023/08/01 04:29:08;;;;;;;1.40;0.70;;;21.20;74.80;;;;;;5076259;28;20373;-61
2023/08/01 04:31:34;;;;;;;3.97;1.05;;;21.20;74.70;;;;;;5074615;28;20052;-62
2023/08/01 04:33:59;;;;;;;2.28;0.85;;;21.20;74.70;;;;;;5076011;28;20040;-61
2023/08/01 04:36:25;;;;;;;1.73;0.90;;;21.20;74.70;;;;;;5075780;28;20105;-62
2023/08/01 04:38:50;;;;;;;2.33;0.95;;;21.20;74.70;;;;;;5073455;28;20449;-62
2023/08/01 04:41:16;;;;;;;1.85;1.08;;;21.20;74.60;;;;;;5075865;28;20091;-62
2023/08/01 04:43:41;;;;;;;1.45;0.80;;;21.20;74.70;;;;;;5075619;28;20510;-62
2023/08/01 04:46:07;;;;;;;2.05;1.00;;;21.20;74.70;;;;;;5075034;28;20052;-62
2023/08/01 04:48:33;;;;;;;2.08;0.82;;;21.20;74.70;;;;;;5075681;28;20407;-62
2023/08/01 04:50:58;;;;;;;2.58;0.93;;;21.20;74.70;;;;;;5075451;28;20074;-61
2023/08/01 04:53:24;;;;;;;1.92;1.00;;;21.20;74.70;;;;;;5075256;28;20052;-61
2023/08/01 04:55:50;;;;;;;2.08;0.98;;;21.20;74.70;;;;;;5075387;28;20037;-61
2023/08/01 04:58:16;;;;;;;2.13;1.10;;;21.20;74.70;;;;;;5075552;28;20094;-61
2023/08/01 05:00:42;;;;;;;2.03;1.00;;;21.20;74.70;;;;;;5070349;28;20045;-62
2023/08/01 05:03:07;;;;;;;1.77;0.90;;;21.20;74.70;;;;;;5066002;28;20033;-61
2023/08/01 05:05:33;;;;;;;2.15;1.00;;;21.20;74.70;;;;;;5062274;28;20044;-62
2023/08/01 05:07:58;;;;;;;2.60;1.00;;;21.20;74.70;;;;;;5074324;28;20075;-61
2023/08/01 05:10:24;;;;;;;2.75;1.00;;;21.20;74.70;;;;;;5074521;28;20549;-62
2023/08/01 05:12:50;;;;;;;1.70;0.90;;;21.20;74.70;;;;;;5073539;28;20037;-62
2023/08/01 05:15:15;;;;;;;2.50;0.95;;;21.20;74.70;;;;;;5074383;28;20154;-62
2023/08/01 05:17:41;;;;;;;2.00;0.90;;;21.20;74.70;;;;;;5074686;28;20080;-62
2023/08/01 05:20:07;;;;;;;1.75;1.00;;;21.10;74.70;;;;;;5074914;28;20043;-61
2023/08/01 05:22:33;;;;;;;1.50;0.90;;;21.20;74.70;;;;;;5072976;28;20119;-62
2023/08/01 05:24:58;;;;;;;3.13;1.00;;;21.10;74.70;;;;;;5074645;28;20123;-62
2023/08/01 05:27:24;;;;;;;1.90;0.75;;;21.10;74.70;;;;;;5074713;28;20114;-60
2023/08/01 05:29:49;;;;;;;2.28;1.00;;;21.10;74.70;;;;;;5074175;28;20045;-61
2023/08/01 05:32:15;;;;;;;2.20;1.00;;;21.20;74.70;;;;;;5074053;28;20048;-62
2023/08/01 05:34:40;;;;;;;2.20;1.00;;;21.10;74.80;;;;;;5071488;28;20144;-62
2023/08/01 05:37:06;;;;;;;2.50;1.05;;;21.10;74.80;;;;;;5074823;28;20039;-61
2023/08/01 05:39:32;;;;;;;4.90;0.90;;;21.10;74.80;;;;;;5074204;28;20048;-62
2023/08/01 05:41:57;;;;;;;3.05;1.00;;;21.10;74.80;;;;;;5073390;28;20057;-61
2023/08/01 05:44:23;;;;;;;3.15;1.02;;;21.20;74.90;;;;;;5074603;28;20036;-61
2023/08/01 05:46:48;;;;;;;9.43;1.10;;;21.20;74.80;;;;;;5072855;28;20036;-61
2023/08/01 05:49:14;;;;;;;4.85;1.00;;;21.20;74.90;;;;;;5072036;28;20377;-64
2023/08/01 05:51:40;;;;;;;2.30;0.80;;;21.20;75.00;;;;;;5072220;28;20040;-62
2023/08/01 05:54:05;;;;;;;2.88;1.00;;;21.20;75.10;;;;;;5074115;28;20209;-63
2023/08/01 05:56:31;;;;;;;2.50;1.00;;;21.20;75.00;;;;;;5071096;28;20488;-62
2023/08/01 05:58:57;;;;;;;3.55;0.95;;;21.20;75.10;;;;;;5072655;28;20040;-61
2023/08/01 06:01:22;;;;;;;5.13;1.40;;;21.20;75.10;;;;;;5073377;28;20082;-63
2023/08/01 06:03:48;;;;;;;7.30;1.30;;;21.20;75.20;;;;;;5053627;28;20060;-62
2023/08/01 06:06:13;;;;;;;4.70;1.10;;;21.20;75.30;;;;;;5072178;28;20078;-62
2023/08/01 06:08:39;;;;;;;3.58;1.20;;;21.20;75.30;;;;;;5073370;28;20043;-63
2023/08/01 06:11:04;;;;;;;4.35;1.20;;;21.20;75.40;;;;;;5072516;28;20057;-63
2023/08/01 06:13:30;;;;;;;4.90;1.10;;;21.20;75.40;;;;;;5072454;28;20041;-61
2023/08/01 06:15:56;;;;;;;5.50;1.27;;;21.20;75.40;;;;;;5072241;28;20071;-62
2023/08/01 06:18:21;;;;;;;3.83;1.20;;;21.20;75.40;;;;;;5072563;28;20047;-61
2023/08/01 06:20:47;;;;;;;5.88;1.00;;;21.30;75.30;;;;;;5059133;28;20044;-63
2023/08/01 06:23:13;;;;;;;2.97;1.00;;;21.30;75.20;;;;;;5072680;28;20083;-63
2023/08/01 06:25:38;;;;;;;4.22;1.23;;;21.30;75.30;;;;;;5070511;28;20032;-64
2023/08/01 06:28:04;;;;;;;5.60;0.93;;;21.30;75.30;;;;;;5072053;28;20044;-64
2023/08/01 06:30:30;;;;;;;4.63;1.20;;;21.30;75.40;;;;;;5072065;28;20053;-63
2023/08/01 06:32:55;;;;;;;4.13;0.90;;;21.30;75.40;;;;;;5071534;28;20453;-63
2023/08/01 06:35:21;;;;;;;4.13;1.02;;;21.30;75.40;;;;;;5072294;28;20067;-63
2023/08/01 06:37:47;;;;;;;4.05;0.88;;;21.30;75.40;;;;;;5072359;28;20127;-63
2023/08/01 06:40:12;;;;;;;3.10;1.15;;;21.30;75.40;;;;;;5072212;28;20067;-63
2023/08/01 06:42:38;;;;;;;3.25;1.05;;;21.30;75.30;;;;;;5072741;28;20032;-63
2023/08/01 06:45:04;;;;;;;3.75;0.90;;;21.30;75.30;;;;;;5071240;28;20045;-63
2023/08/01 06:47:30;;;;;;;3.88;1.00;;;21.30;75.30;;;;;;5072220;28;20115;-63
2023/08/01 06:49:55;;;;;;;3.78;1.20;;;21.30;75.40;;;;;;5072615;28;20475;-63
2023/08/01 06:52:21;;;;;;;2.53;0.90;;;21.30;75.40;;;;;;5071801;28;20052;-63
2023/08/01 06:54:47;;;;;;;2.75;1.15;;;21.30;75.40;;;;;;5072661;28;20044;-63
2023/08/01 06:57:12;;;;;;;2.50;1.05;;;21.30;75.50;;;;;;5073304;28;20048;-63
2023/08/01 06:59:38;;;;;;;2.92;1.25;;;21.40;75.50;;;;;;5071410;28;20063;-62
2023/08/01 07:02:04;;;;;;;3.05;0.90;;;21.40;75.50;;;;;;5071875;28;20040;-63
2023/08/01 07:04:29;;;;;;;3.63;1.00;;;21.40;75.50;;;;;;5071156;28;20051;-63
2023/08/01 07:06:55;;;;;;;3.50;0.88;;;21.40;75.50;;;;;;5071302;28;20032;-63
2023/08/01 07:09:21;;;;;;;3.60;1.00;;;21.40;75.60;;;;;;5068375;28;20129;-62
2023/08/01 07:11:46;;;;;;;2.70;0.95;;;21.40;75.60;;;;;;5063013;28;20033;-63
2023/08/01 07:14:12;;;;;;;2.05;0.80;;;21.40;75.60;;;;;;5051708;28;20400;-63
2023/08/01 07:16:37;;;;;;;4.60;1.55;;;21.40;75.60;;;;;;5058976;28;20131;-63
2023/08/01 07:19:03;;;;;;;6.03;1.27;;;21.40;75.60;;;;;;5060432;28;20455;-62
2023/08/01 07:21:28;;;;;;;2.70;0.98;;;21.40;75.50;;;;;;5058525;28;20076;-64
2023/08/01 07:23:54;;;;;;;3.13;1.10;;;21.50;75.60;;;;;;5055427;28;20396;-63
2023/08/01 07:26:20;;;;;;;4.05;1.33;;;21.50;75.70;;;;;;5058084;28;20036;-63
2023/08/01 07:28:45;;;;;;;3.47;1.35;;;21.50;75.60;;;;;;5057204;28;20152;-62
2023/08/01 07:31:11;;;;;;;3.22;0.82;;;21.50;75.60;;;;;;5055939;28;20080;-62
2023/08/01 07:33:37;;;;;;;3.92;1.23;;;21.50;75.60;;;;;;5052949;28;20132;-63
2023/08/01 07:36:03;;;;;;;2.67;0.90;;;21.50;75.70;;;;;;5053247;28;20041;-63
2023/08/01 07:38:31;;;;;;;4.75;1.10;;;21.50;75.60;;;;;;5071722;28;20033;-63
2023/08/01 07:40:57;;;;;;;3.38;1.15;;;21.50;75.60;;;;;;5060611;28;20495;-63
2023/08/01 07:43:23;;;;;;;3.15;1.20;;;21.50;76.20;;;;;;5070963;28;20123;-63
2023/08/01 07:45:50;;;;;;;3.22;0.88;;;21.50;75.60;;;;;;5071402;28;20040;-62
2023/08/01 07:48:16;;;;;;;2.13;1.10;;;21.50;75.60;;;;;;5057621;28;20545;-63
2023/08/01 07:50:41;;;;;;;4.18;1.10;;;21.60;75.70;;;;;;5071671;28;20052;-62
2023/08/01 07:53:07;;;;;;;4.93;0.90;;;21.60;75.60;;;;;;5071223;28;20041;-62
2023/08/01 07:55:36;;;;;;;2.20;1.02;;;21.60;75.50;;;;;;5069862;28;20082;-63
2023/08/01 07:58:01;;;;;;;3.40;1.00;;;21.60;75.40;;;;;;5071118;28;20048;-62
2023/08/01 08:00:27;;;;;;;4.45;1.00;;;21.60;75.30;;;;;;5072098;28;20459;-62
2023/08/01 08:02:53;;;;;;;3.17;1.00;;;21.60;75.20;;;;;;5070740;28;20032;-62
2023/08/01 08:05:18;;;;;;;3.72;1.00;;;21.60;75.20;;;;;;5071861;28;20086;-63
2023/08/01 08:07:44;;;;;;;2.65;1.10;;;21.60;75.20;;;;;;5068946;28;20083;-63
2023/08/01 08:10:10;;;;;;;3.65;1.17;;;21.60;75.00;;;;;;5051289;28;20492;-62
2023/08/01 08:12:35;;;;;;;1.75;0.80;;;21.60;75.10;;;;;;5064610;28;20048;-62
2023/08/01 08:15:01;;;;;;;6.28;1.20;;;21.60;75.10;;;;;;5063205;28;20513;-62
2023/08/01 08:17:26;;;;;;;2.17;0.90;;;21.60;75.10;;;;;;5060348;28;20614;-62
2023/08/01 08:19:52;;;;;;;2.60;1.13;;;21.60;75.10;;;;;;5050708;28;20040;-62
2023/08/01 08:22:18;;;;;;;4.95;1.35;;;21.50;75.10;;;;;;5059060;28;20052;-63
2023/08/01 08:24:43;;;;;;;4.22;0.95;;;21.50;75.20;;;;;;5051050;28;20045;-63
2023/08/01 08:27:09;;;;;;;4.50;1.10;;;21.60;75.30;;;;;;5057487;28;20053;-63
2023/08/01 08:29:34;;;;;;;4.72;1.23;;;21.50;75.30;;;;;;5051111;28;20052;-64
2023/08/01 08:32:03;;;;;;;2.92;1.02;;;21.60;75.50;;;;;;5051314;28;20053;-64
2023/08/01 08:34:29;;;;;;;4.30;1.10;;;21.60;75.50;;;;;;5061304;28;20040;-64
2023/08/01 08:36:55;;;;;;;3.03;1.08;;;21.60;75.60;;;;;;5061294;28;20460;-64
2023/08/01 08:39:20;;;;;;;6.00;1.38;;;21.60;75.60;;;;;;5063363;28;20045;-62
2023/08/01 08:41:50;;;;;;;3.83;1.10;;;21.60;75.60;;;;;;5054936;28;20154;-64
2023/08/01 08:44:20;;;;;;;5.47;1.48;;;21.60;75.50;;;;;;5050910;28;20049;-63
2023/08/01 08:46:49;;;;;;;6.85;1.20;;;21.60;75.60;;;;;;5055636;28;20043;-63
2023/08/01 08:49:15;;;;;;;4.90;0.90;;;21.60;75.50;;;;;;5033443;28;20056;-64
2023/08/01 08:51:41;;;;;;;4.10;1.20;;;21.60;75.60;;;;;;5096095;28;20044;-63
2023/08/01 08:54:07;;;;;;;4.55;1.30;;;21.60;75.60;;;;;;5065590;28;20090;-64
2023/08/01 08:56:34;;;;;;;5.85;1.50;;;21.60;76.10;;;;;;5051048;28;20049;-62
2023/08/01 08:58:59;;;;;;;4.75;1.20;;;21.60;75.50;;;;;;5082971;28;20037;-62
2023/08/01 09:01:26;;;;;;;3.70;0.98;;;21.60;75.50;;;;;;5049090;28;20045;-62
2023/08/01 09:03:53;;;;;;;3.40;1.00;;;21.50;75.40;;;;;;5062062;28;20082;-63
2023/08/01 09:06:22;;;;;;;6.38;1.55;;;21.60;75.50;;;;;;5050605;28;20049;-63
2023/08/01 09:08:55;;;;;;;4.07;0.98;;;21.60;75.50;;;;;;5061612;28;20091;-63
2023/08/01 09:11:21;;;;;;;4.38;1.40;;;21.60;75.50;;;;;;5054391;28;20041;-63
2023/08/01 09:13:47;;;;;;;4.95;1.13;;;21.50;75.40;;;;;;5054379;28;20108;-64
2023/08/01 09:16:13;;;;;;;3.47;0.93;;;21.60;75.40;;;;;;5102770;28;20060;-63
2023/08/01 09:18:49;;;;;;;4.32;1.30;;;21.60;75.50;;;;;;5073629;28;20048;-63
2023/08/01 09:21:17;;;;;;;5.15;1.10;;;21.50;75.40;;;;;;5073479;28;20040;-63
2023/08/01 09:23:42;;;;;;;5.18;1.17;;;21.50;75.40;;;;;;5073980;28;20084;-63
2023/08/01 09:26:15;;;;;;;4.03;1.08;;;21.60;75.40;;;;;;5074744;28;20072;-63
2023/08/01 09:28:40;;;;;;;5.20;1.27;;;21.50;75.20;;;;;;5073333;28;20066;-63
2023/08/01 09:31:06;;;;;;;3.22;1.00;;;21.50;75.10;;;;;;5074733;28;20056;-62
2023/08/01 09:33:41;;;;;;;4.43;0.90;;;21.50;75.00;;;;;;5075055;28;20053;-62
2023/08/01 09:36:10;;;;;;;3.03;0.90;;;21.50;75.00;;;;;;5074287;28;20032;-63
2023/08/01 09:38:37;;;;;;;4.38;1.08;;;21.50;75.00;;;;;;5074755;28;20131;-63
2023/08/01 09:41:03;;;;;;;5.10;1.33;;;21.50;75.00;;;;;;5073954;28;20480;-63
2023/08/01 09:43:36;;;;;;;3.65;1.20;;;21.50;75.00;;;;;;5074118;28;20044;-63
2023/08/01 09:46:02;;;;;;;3.58;1.25;;;21.40;74.90;;;;;;5073519;28;20408;-63
2023/08/01 09:48:29;;;;;;;3.92;1.20;;;21.50;75.00;;;;;;5073693;28;20044;-63
2023/08/01 09:51:24;;;;;;;3.97;1.52;;;21.40;74.90;;;;;;5074138;28;20434;-63
2023/08/01 09:53:54;;;;;;;4.63;1.35;;;21.40;74.90;;;;;;5064494;28;20056;-63
2023/08/01 09:56:21;;;;;;;4.90;1.70;;;21.40;75.00;;;;;;5073695;28;20044;-64
2023/08/01 09:58:47;;;;;;;5.78;1.77;;;21.40;74.90;;;;;;5073003;28;20051;-63
2023/08/01 10:01:16;;;;;;;3.85;1.60;;;21.40;75.00;;;;;;5074037;28;20040;-62
2023/08/01 10:03:46;;;;;;;3.53;1.23;;;21.40;75.00;;;;;;5073057;28;20070;-62
2023/08/01 10:06:22;;;;;;;4.18;1.23;;;21.40;75.10;;;;;;5072748;28;20048;-62
2023/08/01 10:08:49;;;;;;;4.40;1.58;;;21.40;75.10;;;;;;5071972;28;20113;-62
2023/08/01 10:11:16;;;;;;;3.50;1.17;;;21.40;75.00;;;;;;5073277;28;20064;-63
2023/08/01 10:13:42;;;;;;;4.05;1.50;;;21.40;75.10;;;;;;5072427;28;20115;-63
2023/08/01 10:16:08;;;;;;;3.55;1.33;;;21.40;75.10;;;;;;5070584;28;20488;-61
2023/08/01 10:18:34;;;;;;;3.63;1.40;;;21.50;75.10;;;;;;5071917;28;20040;-63
2023/08/01 10:20:59;;;;;;;5.43;1.38;;;21.50;75.10;;;;;;5073236;28;20040;-63
2023/08/01 10:23:25;;;;;;;5.18;1.45;;;21.50;75.10;;;;;;5055174;28;20045;-63
2023/08/01 10:25:50;;;;;;;7.85;2.00;;;21.50;75.10;;;;;;5072162;28;20044;-63
2023/08/01 10:28:16;;;;;;;4.10;1.42;;;21.50;75.10;;;;;;5073863;28;20500;-63
2023/08/01 10:30:41;;;;;;;5.15;1.52;;;21.50;75.00;;;;;;5072662;28;20056;-63
2023/08/01 10:33:12;;;;;;;4.38;1.38;;;21.60;75.00;;;;;;5071387;28;20082;-62
2023/08/01 10:35:38;;;;;;;3.50;1.00;;;21.60;75.00;;;;;;5071567;28;20052;-63
2023/08/01 10:38:11;;;;;;;5.80;1.70;;;21.60;74.90;;;;;;5072891;28;20037;-63
2023/08/01 10:40:38;;;;;;;3.25;1.40;;;21.60;74.90;;;;;;5072876;28;20059;-63
2023/08/01 10:43:04;;;;;;;4.18;1.50;;;21.60;74.80;;;;;;5071480;28;20550;-64
2023/08/01 10:45:29;;;;;;;3.92;1.15;;;21.70;74.80;;;;;;5072403;28;20131;-64
2023/08/01 10:48:05;;;;;;;6.32;1.48;;;21.70;75.00;;;;;;5078673;28;20040;-63
2023/08/01 10:50:31;;;;;;;3.88;1.40;;;21.80;75.10;;;;;;5079423;28;20044;-63
2023/08/01 10:53:08;;;;;;;6.03;1.50;;;21.70;75.10;;;;;;5070516;28;20044;-63
2023/08/01 10:55:44;;;;;;;6.47;1.20;;;21.80;75.20;;;;;;5070416;28;20131;-62
2023/08/01 10:58:12;;;;;;;5.38;1.33;;;21.80;75.30;;;;;;5054931;28;20400;-64
2023/08/01 11:00:38;;;;;;;4.10;1.15;;;21.80;75.10;;;;;;5054719;28;20048;-62
2023/08/01 11:03:04;;;;;;;4.00;1.27;;;21.80;75.10;;;;;;5073408;28;20040;-62
2023/08/01 11:05:29;;;;;;;5.00;1.42;;;21.90;75.10;;;;;;5072358;28;20048;-62
2023/08/01 11:07:56;;;;;;;5.75;1.63;;;21.90;74.90;;;;;;5066655;28;20036;-62
2023/08/01 11:10:22;;;;;;;7.38;1.35;;;21.90;75.40;;;;;;5062138;28;20102;-62
2023/08/01 11:12:47;;;;;;;5.03;1.20;;;21.90;74.80;;;;;;5071010;28;20048;-62
2023/08/01 11:15:13;;;;;;;5.38;1.30;;;21.90;74.70;;;;;;5072824;28;20072;-63
2023/08/01 11:17:40;;;;;;;5.57;1.40;;;21.90;74.70;;;;;;5072544;28;20044;-63
2023/08/01 11:20:07;;;;;;;12.52;2.00;;;22.00;74.70;;;;;;5069431;28;20047;-65
2023/08/01 11:22:36;;;;;;;7.13;1.50;;;22.00;74.70;;;;;;5068699;28;20039;-65
2023/08/01 11:25:02;;;;;;;6.72;1.30;;;22.00;74.70;;;;;;5069661;28;20052;-65
2023/08/01 11:27:28;;;;;;;7.38;1.55;;;22.00;74.70;;;;;;5070932;28;20048;-65
2023/08/01 11:29:54;;;;;;;5.13;1.45;;;22.00;74.70;;;;;;5071561;28;20097;-65
2023/08/01 11:32:23;;;;;;;6.90;1.60;;;22.00;74.70;;;;;;5067979;28;20056;-64
2023/08/01 11:34:48;;;;;;;6.85;1.50;;;22.00;74.80;;;;;;5071470;28;20048;-64
2023/08/01 11:37:14;;;;;;;8.73;1.77;;;22.00;74.80;;;;;;5071127;28;20564;-64
2023/08/01 11:39:40;;;;;;;6.50;1.50;;;22.00;74.90;;;;;;5070506;28;20400;-65
2023/08/01 11:42:06;;;;;;;5.35;2.47;;;22.00;75.00;;;;;;5070152;28;20048;-65
2023/08/01 11:44:31;;;;;;;6.45;1.48;;;22.00;75.00;;;;;;5070970;28;20044;-64
2023/08/01 11:46:57;;;;;;;5.47;1.42;;;21.90;75.00;;;;;;5071778;28;20040;-64
2023/08/01 11:49:23;;;;;;;6.72;1.70;;;21.90;75.00;;;;;;5071768;28;20079;-64
2023/08/01 11:51:48;;;;;;;5.95;1.42;;;22.00;75.10;;;;;;5070513;28;20037;-64
2023/08/01 11:54:14;;;;;;;5.63;1.48;;;22.00;75.10;;;;;;5072300;28;20609;-64
2023/08/01 11:56:41;;;;;;;5.07;1.50;;;22.00;75.10;;;;;;5071408;28;20511;-64
2023/08/01 11:59:11;;;;;;;9.00;1.58;;;22.00;75.10;;;;;;5072541;28;20077;-64
2023/08/01 12:01:40;;;;;;;6.80;1.33;;;22.00;75.10;;;;;;5071104;28;20033;-63
2023/08/01 12:04:05;;;;;;;5.60;1.33;;;22.00;75.10;;;;;;5071027;28;20049;-62
2023/08/01 12:06:32;;;;;;;7.22;1.70;;;22.00;75.20;;;;;;5072138;28;20039;-63
2023/08/01 12:09:06;;;;;;;5.60;1.40;;;22.00;75.10;;;;;;5071259;28;20172;-62
2023/08/01 12:11:32;;;;;;;5.60;1.38;;;22.00;75.10;;;;;;5071608;28;20068;-63
2023/08/01 12:14:06;;;;;;;5.03;1.52;;;22.00;75.10;;;;;;5071952;28;21092;-63
2023/08/01 12:16:32;;;;;;;3.72;1.05;;;22.00;75.00;;;;;;5071549;28;20043;-63
2023/08/01 12:18:58;;;;;;;9.25;1.40;;;22.00;74.90;;;;;;5072014;28;20036;-62
2023/08/01 12:21:23;;;;;;;7.85;1.50;;;22.00;74.90;;;;;;5071581;28;20129;-62
2023/08/01 12:23:49;;;;;;;4.00;1.40;;;22.00;74.80;;;;;;5071126;28;20040;-62
2023/08/01 12:26:14;;;;;;;7.75;1.23;;;22.00;74.80;;;;;;5071169;28;20377;-62
2023/08/01 12:28:40;;;;;;;4.65;1.67;;;22.00;74.80;;;;;;5070562;28;20047;-62
2023/08/01 12:31:05;;;;;;;5.22;1.27;;;22.00;74.80;;;;;;5066389;28;20056;-62
2023/08/01 12:33:32;;;;;;;6.55;1.40;;;22.10;74.80;;;;;;5069146;28;20033;-62
2023/08/01 12:35:58;;;;;;;5.50;1.30;;;22.10;74.80;;;;;;5071400;28;20047;-63
2023/08/01 12:38:23;;;;;;;4.03;1.35;;;22.10;74.70;;;;;;5070827;28;20044;-62
2023/08/01 12:40:49;;;;;;;4.28;1.73;;;22.10;74.70;;;;;;5071221;28;20037;-62
2023/08/01 12:43:16;;;;;;;3.70;1.02;;;22.10;74.70;;;;;;5074080;28;20071;-62